sensor_id;sensor_type;location;lat;lon;timestamp;P1;durP1;ratioP1;P2;durP2;ratioP2
10009;SDS011;5044;48.652;9.250;2023-06-19T00:00:29;4.40;;;3.13;;
10009;SDS011;5044;48.652;9.250;2023-06-19T00:02:57;6.25;;;4.28;;
10009;SDS011;5044;48.652;9.250;2023-06-19T00:05:23;6.63;;;4.60;;
10009;SDS011;5044;48.652;9.250;2023-06-19T00:07:52;5.95;;;3.80;;
10009;SDS011;5044;48.652;9.250;2023-06-19T00:10:19;4.22;;;3.78;;
10009;SDS011;5044;48.652;9.250;2023-06-19T00:12:46;5.00;;;3.90;;
10009;SDS011;5044;48.652;9.250;2023-06-19T00:15:13;8.18;;;3.80;;
10009;SDS011;5044;48.652;9.250;2023-06-19T00:17:40;4.65;;;3.70;;
10009;SDS011;5044;48.652;9.250;2023-06-19T00:20:07;7.35;;;4.55;;
10009;SDS011;5044;48.652;9.250;2023-06-19T00:22:35;5.40;;;3.95;;
10009;SDS011;5044;48.652;9.250;2023-06-19T00:25:04;4.93;;;3.65;;
10009;SDS011;5044;48.652;9.250;2023-06-19T00:27:31;6.93;;;3.88;;
10009;SDS011;5044;48.652;9.250;2023-06-19T00:29:57;3.42;;;2.97;;
10009;SDS011;5044;48.652;9.250;2023-06-19T00:32:27;4.07;;;3.53;;
10009;SDS011;5044;48.652;9.250;2023-06-19T00:34:54;4.20;;;3.22;;
10009;SDS011;5044;48.652;9.250;2023-06-19T00:37:21;3.47;;;3.03;;
10009;SDS011;5044;48.652;9.250;2023-06-19T00:39:48;4.22;;;3.53;;
10009;SDS011;5044;48.652;9.250;2023-06-19T00:42:16;4.80;;;3.53;;
10009;SDS011;5044;48.652;9.250;2023-06-19T00:44:43;6.95;;;3.20;;
10009;SDS011;5044;48.652;9.250;2023-06-19T00:47:10;3.42;;;2.80;;
10009;SDS011;5044;48.652;9.250;2023-06-19T00:49:37;6.60;;;3.55;;
10009;SDS011;5044;48.652;9.250;2023-06-19T00:52:05;5.18;;;3.47;;
10009;SDS011;5044;48.652;9.250;2023-06-19T00:54:32;7.25;;;3.88;;
10009;SDS011;5044;48.652;9.250;2023-06-19T00:56:59;4.35;;;3.22;;
10009;SDS011;5044;48.652;9.250;2023-06-19T00:59:28;3.80;;;3.33;;
10009;SDS011;5044;48.652;9.250;2023-06-19T01:01:56;5.43;;;3.95;;
10009;SDS011;5044;48.652;9.250;2023-06-19T01:04:23;4.00;;;3.60;;
10009;SDS011;5044;48.652;9.250;2023-06-19T01:06:52;4.60;;;3.50;;
10009;SDS011;5044;48.652;9.250;2023-06-19T01:09:24;4.65;;;4.15;;
10009;SDS011;5044;48.652;9.250;2023-06-19T01:11:57;4.38;;;3.97;;
10009;SDS011;5044;48.652;9.250;2023-06-19T01:14:30;5.00;;;3.58;;
10009;SDS011;5044;48.652;9.250;2023-06-19T01:17:12;3.88;;;3.47;;
10009;SDS011;5044;48.652;9.250;2023-06-19T01:19:39;5.53;;;3.78;;
10009;SDS011;5044;48.652;9.250;2023-06-19T01:22:07;5.63;;;4.28;;
10009;SDS011;5044;48.652;9.250;2023-06-19T01:24:34;4.88;;;3.92;;
10009;SDS011;5044;48.652;9.250;2023-06-19T01:27:01;4.78;;;3.35;;
10009;SDS011;5044;48.652;9.250;2023-06-19T01:29:28;7.40;;;4.20;;
10009;SDS011;5044;48.652;9.250;2023-06-19T01:31:57;6.43;;;4.72;;
10009;SDS011;5044;48.652;9.250;2023-06-19T01:34:29;7.00;;;4.13;;
10009;SDS011;5044;48.652;9.250;2023-06-19T01:36:57;6.25;;;4.32;;
10009;SDS011;5044;48.652;9.250;2023-06-19T01:39:26;6.78;;;4.55;;
10009;SDS011;5044;48.652;9.250;2023-06-19T01:41:53;6.53;;;4.03;;
10009;SDS011;5044;48.652;9.250;2023-06-19T01:44:21;14.00;;;4.43;;
10009;SDS011;5044;48.652;9.250;2023-06-19T01:46:48;4.60;;;3.88;;
10009;SDS011;5044;48.652;9.250;2023-06-19T01:49:16;7.13;;;3.92;;
10009;SDS011;5044;48.652;9.250;2023-06-19T01:51:43;4.38;;;3.97;;
10009;SDS011;5044;48.652;9.250;2023-06-19T01:54:10;6.82;;;3.78;;
10009;SDS011;5044;48.652;9.250;2023-06-19T01:56:39;4.97;;;4.18;;
10009;SDS011;5044;48.652;9.250;2023-06-19T01:59:06;7.45;;;4.13;;
10009;SDS011;5044;48.652;9.250;2023-06-19T02:01:33;6.53;;;3.83;;
10009;SDS011;5044;48.652;9.250;2023-06-19T02:04:00;4.60;;;3.75;;
10009;SDS011;5044;48.652;9.250;2023-06-19T02:06:29;5.55;;;3.72;;
10009;SDS011;5044;48.652;9.250;2023-06-19T02:08:56;5.70;;;3.60;;
10009;SDS011;5044;48.652;9.250;2023-06-19T02:11:23;5.63;;;3.70;;
10009;SDS011;5044;48.652;9.250;2023-06-19T02:13:51;3.35;;;3.05;;
10009;SDS011;5044;48.652;9.250;2023-06-19T02:16:18;3.70;;;3.22;;
10009;SDS011;5044;48.652;9.250;2023-06-19T02:18:45;5.18;;;2.97;;
10009;SDS011;5044;48.652;9.250;2023-06-19T02:21:12;5.00;;;3.13;;
10009;SDS011;5044;48.652;9.250;2023-06-19T02:23:39;4.70;;;3.00;;
10009;SDS011;5044;48.652;9.250;2023-06-19T02:26:06;5.22;;;3.00;;
10009;SDS011;5044;48.652;9.250;2023-06-19T02:28:33;5.00;;;3.10;;
10009;SDS011;5044;48.652;9.250;2023-06-19T02:31:01;5.97;;;2.92;;
10009;SDS011;5044;48.652;9.250;2023-06-19T02:33:29;3.25;;;2.40;;
10009;SDS011;5044;48.652;9.250;2023-06-19T02:35:57;4.57;;;3.00;;
10009;SDS011;5044;48.652;9.250;2023-06-19T02:38:24;3.15;;;2.50;;
10009;SDS011;5044;48.652;9.250;2023-06-19T02:40:51;4.40;;;3.10;;
10009;SDS011;5044;48.652;9.250;2023-06-19T02:43:18;3.53;;;3.00;;
10009;SDS011;5044;48.652;9.250;2023-06-19T02:45:45;4.60;;;3.35;;
10009;SDS011;5044;48.652;9.250;2023-06-19T02:48:13;6.57;;;3.30;;
10009;SDS011;5044;48.652;9.250;2023-06-19T02:50:41;7.05;;;3.42;;
10009;SDS011;5044;48.652;9.250;2023-06-19T02:53:08;4.85;;;3.67;;
10009;SDS011;5044;48.652;9.250;2023-06-19T02:55:36;3.55;;;3.20;;
10009;SDS011;5044;48.652;9.250;2023-06-19T02:58:03;4.38;;;3.22;;
10009;SDS011;5044;48.652;9.250;2023-06-19T03:00:30;8.23;;;3.65;;
10009;SDS011;5044;48.652;9.250;2023-06-19T03:02:57;3.85;;;3.25;;
10009;SDS011;5044;48.652;9.250;2023-06-19T03:05:25;4.07;;;3.47;;
10009;SDS011;5044;48.652;9.250;2023-06-19T03:07:53;3.85;;;3.45;;
10009;SDS011;5044;48.652;9.250;2023-06-19T03:10:20;4.72;;;3.45;;
10009;SDS011;5044;48.652;9.250;2023-06-19T03:12:47;5.22;;;3.58;;
10009;SDS011;5044;48.652;9.250;2023-06-19T03:15:14;6.97;;;3.15;;
10009;SDS011;5044;48.652;9.250;2023-06-19T03:17:41;3.88;;;3.45;;
10009;SDS011;5044;48.652;9.250;2023-06-19T03:20:08;4.78;;;3.05;;
10009;SDS011;5044;48.652;9.250;2023-06-19T03:22:38;4.65;;;3.50;;
10009;SDS011;5044;48.652;9.250;2023-06-19T03:25:06;2.97;;;2.67;;
10009;SDS011;5044;48.652;9.250;2023-06-19T03:27:33;3.40;;;2.95;;
10009;SDS011;5044;48.652;9.250;2023-06-19T03:30:01;5.03;;;3.10;;
10009;SDS011;5044;48.652;9.250;2023-06-19T03:32:31;3.92;;;3.53;;
10009;SDS011;5044;48.652;9.250;2023-06-19T03:34:58;3.40;;;3.08;;
10009;SDS011;5044;48.652;9.250;2023-06-19T03:37:25;3.72;;;2.42;;
10009;SDS011;5044;48.652;9.250;2023-06-19T03:39:53;2.80;;;2.55;;
10009;SDS011;5044;48.652;9.250;2023-06-19T03:42:20;5.78;;;3.15;;
10009;SDS011;5044;48.652;9.250;2023-06-19T03:44:47;3.10;;;2.80;;
10009;SDS011;5044;48.652;9.250;2023-06-19T03:47:14;4.93;;;2.88;;
10009;SDS011;5044;48.652;9.250;2023-06-19T03:49:42;4.20;;;3.20;;
10009;SDS011;5044;48.652;9.250;2023-06-19T03:52:09;3.20;;;2.90;;
10009;SDS011;5044;48.652;9.250;2023-06-19T03:54:36;3.55;;;3.25;;
10009;SDS011;5044;48.652;9.250;2023-06-19T03:57:04;5.30;;;3.40;;
10009;SDS011;5044;48.652;9.250;2023-06-19T03:59:33;4.07;;;3.25;;
10009;SDS011;5044;48.652;9.250;2023-06-19T04:02:00;3.50;;;2.97;;
10009;SDS011;5044;48.652;9.250;2023-06-19T04:04:27;3.85;;;3.05;;
10009;SDS011;5044;48.652;9.250;2023-06-19T04:06:55;4.30;;;3.20;;
10009;SDS011;5044;48.652;9.250;2023-06-19T04:09:22;3.75;;;3.40;;
10009;SDS011;5044;48.652;9.250;2023-06-19T04:11:49;4.07;;;2.97;;
10009;SDS011;5044;48.652;9.250;2023-06-19T04:14:17;3.55;;;2.88;;
10009;SDS011;5044;48.652;9.250;2023-06-19T04:16:44;3.72;;;2.85;;
10009;SDS011;5044;48.652;9.250;2023-06-19T04:19:11;4.05;;;3.25;;
10009;SDS011;5044;48.652;9.250;2023-06-19T04:21:38;5.30;;;3.10;;
10009;SDS011;5044;48.652;9.250;2023-06-19T04:24:04;5.32;;;3.45;;
10009;SDS011;5044;48.652;9.250;2023-06-19T04:26:33;7.00;;;2.55;;
10009;SDS011;5044;48.652;9.250;2023-06-19T04:29:00;4.78;;;3.25;;
10009;SDS011;5044;48.652;9.250;2023-06-19T04:31:29;4.88;;;3.00;;
10009;SDS011;5044;48.652;9.250;2023-06-19T04:33:56;3.25;;;2.85;;
10009;SDS011;5044;48.652;9.250;2023-06-19T04:36:22;3.03;;;2.72;;
10009;SDS011;5044;48.652;9.250;2023-06-19T04:38:49;3.80;;;2.63;;
10009;SDS011;5044;48.652;9.250;2023-06-19T04:41:17;4.35;;;2.33;;
10009;SDS011;5044;48.652;9.250;2023-06-19T04:43:44;4.70;;;2.58;;
10009;SDS011;5044;48.652;9.250;2023-06-19T04:46:10;2.65;;;2.28;;
10009;SDS011;5044;48.652;9.250;2023-06-19T04:48:39;3.35;;;2.40;;
10009;SDS011;5044;48.652;9.250;2023-06-19T04:51:06;3.17;;;2.30;;
10009;SDS011;5044;48.652;9.250;2023-06-19T04:53:33;2.67;;;2.22;;
10009;SDS011;5044;48.652;9.250;2023-06-19T04:55:59;4.13;;;2.40;;
10009;SDS011;5044;48.652;9.250;2023-06-19T04:58:26;2.88;;;2.20;;
10009;SDS011;5044;48.652;9.250;2023-06-19T05:00:53;4.25;;;2.58;;
10009;SDS011;5044;48.652;9.250;2023-06-19T05:03:20;3.13;;;2.33;;
10009;SDS011;5044;48.652;9.250;2023-06-19T05:05:56;2.45;;;2.10;;
10009;SDS011;5044;48.652;9.250;2023-06-19T05:08:22;3.00;;;2.22;;
10009;SDS011;5044;48.652;9.250;2023-06-19T05:10:49;3.00;;;2.35;;
10009;SDS011;5044;48.652;9.250;2023-06-19T05:13:16;2.83;;;2.55;;
10009;SDS011;5044;48.652;9.250;2023-06-19T05:15:43;3.17;;;2.15;;
10009;SDS011;5044;48.652;9.250;2023-06-19T05:18:11;2.45;;;2.25;;
10009;SDS011;5044;48.652;9.250;2023-06-19T05:20:37;2.35;;;2.00;;
10009;SDS011;5044;48.652;9.250;2023-06-19T05:23:06;3.08;;;2.30;;
10009;SDS011;5044;48.652;9.250;2023-06-19T05:25:32;3.45;;;2.72;;
10009;SDS011;5044;48.652;9.250;2023-06-19T05:28:00;2.60;;;2.30;;
10009;SDS011;5044;48.652;9.250;2023-06-19T05:30:26;4.55;;;2.38;;
10009;SDS011;5044;48.652;9.250;2023-06-19T05:32:53;2.75;;;2.40;;
10009;SDS011;5044;48.652;9.250;2023-06-19T05:35:20;2.53;;;2.00;;
10009;SDS011;5044;48.652;9.250;2023-06-19T05:37:47;2.83;;;2.60;;
10009;SDS011;5044;48.652;9.250;2023-06-19T05:40:15;4.65;;;2.60;;
10009;SDS011;5044;48.652;9.250;2023-06-19T05:42:42;4.88;;;2.70;;
10009;SDS011;5044;48.652;9.250;2023-06-19T05:45:10;2.97;;;2.35;;
10009;SDS011;5044;48.652;9.250;2023-06-19T05:47:37;10.18;;;2.80;;
10009;SDS011;5044;48.652;9.250;2023-06-19T05:50:04;3.30;;;2.58;;
10009;SDS011;5044;48.652;9.250;2023-06-19T05:52:32;3.08;;;2.10;;
10009;SDS011;5044;48.652;9.250;2023-06-19T05:54:59;3.25;;;2.47;;
10009;SDS011;5044;48.652;9.250;2023-06-19T05:57:28;3.72;;;2.50;;
10009;SDS011;5044;48.652;9.250;2023-06-19T05:59:54;2.63;;;1.98;;
10009;SDS011;5044;48.652;9.250;2023-06-19T06:02:21;3.00;;;2.58;;
10009;SDS011;5044;48.652;9.250;2023-06-19T06:04:48;3.20;;;2.50;;
10009;SDS011;5044;48.652;9.250;2023-06-19T06:07:16;3.75;;;2.58;;
10009;SDS011;5044;48.652;9.250;2023-06-19T06:09:43;4.15;;;2.42;;
10009;SDS011;5044;48.652;9.250;2023-06-19T06:12:09;3.50;;;2.40;;
10009;SDS011;5044;48.652;9.250;2023-06-19T06:14:39;3.00;;;2.60;;
10009;SDS011;5044;48.652;9.250;2023-06-19T06:17:07;2.97;;;2.50;;
10009;SDS011;5044;48.652;9.250;2023-06-19T06:19:33;3.00;;;2.20;;
10009;SDS011;5044;48.652;9.250;2023-06-19T06:22:02;3.08;;;2.20;;
10009;SDS011;5044;48.652;9.250;2023-06-19T06:24:29;3.53;;;2.80;;
10009;SDS011;5044;48.652;9.250;2023-06-19T06:26:55;3.13;;;2.45;;
10009;SDS011;5044;48.652;9.250;2023-06-19T06:29:24;5.72;;;2.80;;
10009;SDS011;5044;48.652;9.250;2023-06-19T06:32:02;2.97;;;2.30;;
10009;SDS011;5044;48.652;9.250;2023-06-19T06:34:30;3.90;;;2.35;;
10009;SDS011;5044;48.652;9.250;2023-06-19T06:36:57;2.83;;;2.40;;
10009;SDS011;5044;48.652;9.250;2023-06-19T06:39:24;2.75;;;2.03;;
10009;SDS011;5044;48.652;9.250;2023-06-19T06:41:51;4.88;;;2.42;;
10009;SDS011;5044;48.652;9.250;2023-06-19T06:44:18;5.93;;;2.33;;
10009;SDS011;5044;48.652;9.250;2023-06-19T06:46:45;6.93;;;2.00;;
10009;SDS011;5044;48.652;9.250;2023-06-19T06:49:13;4.68;;;2.15;;
10009;SDS011;5044;48.652;9.250;2023-06-19T06:51:41;3.83;;;2.45;;
10009;SDS011;5044;48.652;9.250;2023-06-19T06:54:08;2.22;;;1.70;;
10009;SDS011;5044;48.652;9.250;2023-06-19T06:56:35;3.87;;;2.40;;
10009;SDS011;5044;48.652;9.250;2023-06-19T06:59:02;5.30;;;2.08;;
10009;SDS011;5044;48.652;9.250;2023-06-19T07:01:29;4.15;;;2.22;;
10009;SDS011;5044;48.652;9.250;2023-06-19T07:03:56;2.28;;;2.08;;
10009;SDS011;5044;48.652;9.250;2023-06-19T07:06:24;5.07;;;1.98;;
10009;SDS011;5044;48.652;9.250;2023-06-19T07:08:51;2.10;;;1.48;;
10009;SDS011;5044;48.652;9.250;2023-06-19T07:11:18;2.22;;;1.92;;
10009;SDS011;5044;48.652;9.250;2023-06-19T07:13:44;3.53;;;1.33;;
10009;SDS011;5044;48.652;9.250;2023-06-19T07:16:11;2.38;;;1.35;;
10009;SDS011;5044;48.652;9.250;2023-06-19T07:18:38;1.02;;;1.00;;
10009;SDS011;5044;48.652;9.250;2023-06-19T07:21:07;2.25;;;1.40;;
10009;SDS011;5044;48.652;9.250;2023-06-19T07:26:06;2.10;;;1.70;;
10009;SDS011;5044;48.652;9.250;2023-06-19T07:28:33;2.47;;;1.63;;
10009;SDS011;5044;48.652;9.250;2023-06-19T07:31:01;2.03;;;1.70;;
10009;SDS011;5044;48.652;9.250;2023-06-19T07:33:28;5.60;;;2.10;;
10009;SDS011;5044;48.652;9.250;2023-06-19T07:35:55;2.63;;;1.63;;
10009;SDS011;5044;48.652;9.250;2023-06-19T07:38:22;1.60;;;1.50;;
10009;SDS011;5044;48.652;9.250;2023-06-19T07:40:50;2.40;;;1.52;;
10009;SDS011;5044;48.652;9.250;2023-06-19T07:43:17;2.83;;;1.90;;
10009;SDS011;5044;48.652;9.250;2023-06-19T07:45:44;1.80;;;1.70;;
10009;SDS011;5044;48.652;9.250;2023-06-19T07:48:11;2.88;;;1.77;;
10009;SDS011;5044;48.652;9.250;2023-06-19T07:50:38;4.13;;;2.03;;
10009;SDS011;5044;48.652;9.250;2023-06-19T07:53:04;1.88;;;1.50;;
10009;SDS011;5044;48.652;9.250;2023-06-19T07:55:31;1.98;;;1.75;;
10009;SDS011;5044;48.652;9.250;2023-06-19T07:58:01;3.17;;;1.58;;
10009;SDS011;5044;48.652;9.250;2023-06-19T08:00:29;4.72;;;1.85;;
10009;SDS011;5044;48.652;9.250;2023-06-19T08:03:11;2.53;;;1.70;;
10009;SDS011;5044;48.652;9.250;2023-06-19T08:05:38;3.70;;;1.40;;
10009;SDS011;5044;48.652;9.250;2023-06-19T08:08:05;2.80;;;2.00;;
10009;SDS011;5044;48.652;9.250;2023-06-19T08:10:32;3.20;;;2.03;;
10009;SDS011;5044;48.652;9.250;2023-06-19T08:12:59;1.73;;;1.40;;
10009;SDS011;5044;48.652;9.250;2023-06-19T08:15:27;2.30;;;1.50;;
10009;SDS011;5044;48.652;9.250;2023-06-19T08:17:53;1.70;;;1.50;;
10009;SDS011;5044;48.652;9.250;2023-06-19T08:20:20;2.10;;;1.77;;
10009;SDS011;5044;48.652;9.250;2023-06-19T08:22:47;2.22;;;1.55;;
10009;SDS011;5044;48.652;9.250;2023-06-19T08:25:14;1.77;;;1.40;;
10009;SDS011;5044;48.652;9.250;2023-06-19T08:27:41;2.15;;;1.65;;
10009;SDS011;5044;48.652;9.250;2023-06-19T08:30:10;1.63;;;1.17;;
10009;SDS011;5044;48.652;9.250;2023-06-19T08:32:38;2.80;;;1.88;;
10009;SDS011;5044;48.652;9.250;2023-06-19T08:35:05;1.75;;;1.60;;
10009;SDS011;5044;48.652;9.250;2023-06-19T08:37:32;3.13;;;1.70;;
10009;SDS011;5044;48.652;9.250;2023-06-19T08:39:59;2.72;;;1.60;;
10009;SDS011;5044;48.652;9.250;2023-06-19T08:42:27;2.60;;;1.60;;
10009;SDS011;5044;48.652;9.250;2023-06-19T08:44:54;2.88;;;1.80;;
10009;SDS011;5044;48.652;9.250;2023-06-19T08:47:21;2.88;;;1.70;;
10009;SDS011;5044;48.652;9.250;2023-06-19T08:49:49;2.50;;;1.73;;
10009;SDS011;5044;48.652;9.250;2023-06-19T08:52:16;4.88;;;1.92;;
10009;SDS011;5044;48.652;9.250;2023-06-19T08:54:43;2.03;;;1.20;;
10009;SDS011;5044;48.652;9.250;2023-06-19T08:57:11;3.67;;;1.60;;
10009;SDS011;5044;48.652;9.250;2023-06-19T08:59:38;1.75;;;1.60;;
10009;SDS011;5044;48.652;9.250;2023-06-19T09:02:05;1.77;;;1.27;;
10009;SDS011;5044;48.652;9.250;2023-06-19T09:04:32;3.63;;;1.80;;
10009;SDS011;5044;48.652;9.250;2023-06-19T09:07:01;2.63;;;1.30;;
10009;SDS011;5044;48.652;9.250;2023-06-19T09:09:29;2.95;;;1.65;;
10009;SDS011;5044;48.652;9.250;2023-06-19T09:11:58;1.65;;;1.40;;
10009;SDS011;5044;48.652;9.250;2023-06-19T09:14:33;2.35;;;1.95;;
10009;SDS011;5044;48.652;9.250;2023-06-19T09:17:01;2.33;;;1.80;;
10009;SDS011;5044;48.652;9.250;2023-06-19T09:19:29;7.25;;;2.28;;
10009;SDS011;5044;48.652;9.250;2023-06-19T09:22:01;3.83;;;1.88;;
10009;SDS011;5044;48.652;9.250;2023-06-19T09:24:35;3.92;;;1.90;;
10009;SDS011;5044;48.652;9.250;2023-06-19T09:27:09;2.00;;;1.70;;
10009;SDS011;5044;48.652;9.250;2023-06-19T09:29:38;2.70;;;1.80;;
10009;SDS011;5044;48.652;9.250;2023-06-19T09:32:16;2.00;;;1.80;;
10009;SDS011;5044;48.652;9.250;2023-06-19T09:34:44;2.88;;;1.65;;
10009;SDS011;5044;48.652;9.250;2023-06-19T09:37:13;3.40;;;1.17;;
10009;SDS011;5044;48.652;9.250;2023-06-19T09:39:40;1.42;;;1.20;;
10009;SDS011;5044;48.652;9.250;2023-06-19T09:42:08;1.50;;;1.33;;
10009;SDS011;5044;48.652;9.250;2023-06-19T09:44:39;4.63;;;1.05;;
10009;SDS011;5044;48.652;9.250;2023-06-19T09:47:14;1.08;;;0.98;;
10009;SDS011;5044;48.652;9.250;2023-06-19T09:49:47;1.45;;;0.88;;
10009;SDS011;5044;48.652;9.250;2023-06-19T09:52:18;1.33;;;1.15;;
10009;SDS011;5044;48.652;9.250;2023-06-19T09:57:14;2.25;;;1.20;;
10009;SDS011;5044;48.652;9.250;2023-06-19T09:59:41;1.30;;;1.20;;
10009;SDS011;5044;48.652;9.250;2023-06-19T10:02:09;1.02;;;0.93;;
10009;SDS011;5044;48.652;9.250;2023-06-19T10:04:44;1.00;;;0.90;;
10009;SDS011;5044;48.652;9.250;2023-06-19T10:07:15;1.52;;;1.13;;
10009;SDS011;5044;48.652;9.250;2023-06-19T10:09:54;1.88;;;1.02;;
10009;SDS011;5044;48.652;9.250;2023-06-19T10:12:22;2.30;;;0.98;;
10009;SDS011;5044;48.652;9.250;2023-06-19T10:15:07;3.53;;;1.25;;
10009;SDS011;5044;48.652;9.250;2023-06-19T10:17:35;1.27;;;1.17;;
10009;SDS011;5044;48.652;9.250;2023-06-19T10:20:02;1.08;;;0.98;;
10009;SDS011;5044;48.652;9.250;2023-06-19T10:22:49;1.00;;;0.90;;
10009;SDS011;5044;48.652;9.250;2023-06-19T10:25:22;1.33;;;1.23;;
10009;SDS011;5044;48.652;9.250;2023-06-19T10:27:49;2.35;;;1.38;;
10009;SDS011;5044;48.652;9.250;2023-06-19T10:30:18;3.10;;;1.20;;
10009;SDS011;5044;48.652;9.250;2023-06-19T10:32:45;1.42;;;1.20;;
10009;SDS011;5044;48.652;9.250;2023-06-19T10:35:13;2.05;;;1.10;;
10009;SDS011;5044;48.652;9.250;2023-06-19T10:37:42;0.88;;;0.88;;
10009;SDS011;5044;48.652;9.250;2023-06-19T10:40:10;1.55;;;1.27;;
10009;SDS011;5044;48.652;9.250;2023-06-19T10:42:37;2.10;;;1.52;;
10009;SDS011;5044;48.652;9.250;2023-06-19T10:45:05;1.38;;;1.25;;
10009;SDS011;5044;48.652;9.250;2023-06-19T10:47:35;1.52;;;1.30;;
10009;SDS011;5044;48.652;9.250;2023-06-19T10:50:05;1.20;;;1.10;;
10009;SDS011;5044;48.652;9.250;2023-06-19T10:52:39;1.17;;;1.05;;
10009;SDS011;5044;48.652;9.250;2023-06-19T10:55:09;1.70;;;1.20;;
10009;SDS011;5044;48.652;9.250;2023-06-19T10:57:38;2.38;;;1.27;;
10009;SDS011;5044;48.652;9.250;2023-06-19T11:00:06;1.50;;;1.20;;
10009;SDS011;5044;48.652;9.250;2023-06-19T11:02:38;1.60;;;1.50;;
10009;SDS011;5044;48.652;9.250;2023-06-19T11:05:08;1.70;;;1.45;;
10009;SDS011;5044;48.652;9.250;2023-06-19T11:10:06;1.75;;;1.33;;
10009;SDS011;5044;48.652;9.250;2023-06-19T11:12:35;1.65;;;1.40;;
10009;SDS011;5044;48.652;9.250;2023-06-19T11:15:05;2.88;;;1.45;;
10009;SDS011;5044;48.652;9.250;2023-06-19T11:17:33;1.45;;;1.25;;
10009;SDS011;5044;48.652;9.250;2023-06-19T11:20:00;1.30;;;1.20;;
10009;SDS011;5044;48.652;9.250;2023-06-19T11:22:37;1.50;;;1.35;;
10009;SDS011;5044;48.652;9.250;2023-06-19T11:25:06;2.40;;;1.30;;
10009;SDS011;5044;48.652;9.250;2023-06-19T11:27:36;1.80;;;1.25;;
10009;SDS011;5044;48.652;9.250;2023-06-19T11:30:05;3.55;;;1.30;;
10009;SDS011;5044;48.652;9.250;2023-06-19T11:32:33;1.52;;;1.23;;
10009;SDS011;5044;48.652;9.250;2023-06-19T11:35:06;3.97;;;1.30;;
10009;SDS011;5044;48.652;9.250;2023-06-19T11:37:34;2.10;;;1.40;;
10009;SDS011;5044;48.652;9.250;2023-06-19T11:40:01;3.70;;;1.40;;
10009;SDS011;5044;48.652;9.250;2023-06-19T11:42:45;3.50;;;1.50;;
10009;SDS011;5044;48.652;9.250;2023-06-19T11:45:12;2.95;;;1.50;;
10009;SDS011;5044;48.652;9.250;2023-06-19T11:47:39;1.50;;;1.40;;
10009;SDS011;5044;48.652;9.250;2023-06-19T11:50:06;1.30;;;1.13;;
10009;SDS011;5044;48.652;9.250;2023-06-19T11:52:34;1.40;;;1.30;;
10009;SDS011;5044;48.652;9.250;2023-06-19T11:55:01;1.42;;;1.33;;
10009;SDS011;5044;48.652;9.250;2023-06-19T11:57:28;1.20;;;1.10;;
10009;SDS011;5044;48.652;9.250;2023-06-19T11:59:56;3.63;;;1.23;;
10009;SDS011;5044;48.652;9.250;2023-06-19T12:02:23;1.85;;;1.40;;
10009;SDS011;5044;48.652;9.250;2023-06-19T12:04:50;4.00;;;1.73;;
10009;SDS011;5044;48.652;9.250;2023-06-19T12:07:17;1.50;;;1.20;;
10009;SDS011;5044;48.652;9.250;2023-06-19T12:09:44;3.03;;;1.50;;
10009;SDS011;5044;48.652;9.250;2023-06-19T12:12:11;1.63;;;1.20;;
10009;SDS011;5044;48.652;9.250;2023-06-19T12:14:38;1.60;;;1.40;;
10009;SDS011;5044;48.652;9.250;2023-06-19T12:17:06;1.58;;;1.48;;
10009;SDS011;5044;48.652;9.250;2023-06-19T12:19:33;1.48;;;1.38;;
10009;SDS011;5044;48.652;9.250;2023-06-19T12:22:00;1.38;;;1.27;;
10009;SDS011;5044;48.652;9.250;2023-06-19T12:24:27;1.52;;;1.27;;
10009;SDS011;5044;48.652;9.250;2023-06-19T12:26:54;1.67;;;1.42;;
10009;SDS011;5044;48.652;9.250;2023-06-19T12:29:21;1.35;;;1.25;;
10009;SDS011;5044;48.652;9.250;2023-06-19T12:31:49;2.58;;;1.70;;
10009;SDS011;5044;48.652;9.250;2023-06-19T12:34:17;3.22;;;1.50;;
10009;SDS011;5044;48.652;9.250;2023-06-19T12:36:44;2.97;;;1.52;;
10009;SDS011;5044;48.652;9.250;2023-06-19T12:39:12;2.03;;;1.40;;
10009;SDS011;5044;48.652;9.250;2023-06-19T12:41:42;2.63;;;1.30;;
10009;SDS011;5044;48.652;9.250;2023-06-19T12:44:09;1.80;;;1.70;;
10009;SDS011;5044;48.652;9.250;2023-06-19T12:46:39;1.80;;;1.65;;
10009;SDS011;5044;48.652;9.250;2023-06-19T12:49:08;2.78;;;1.88;;
10009;SDS011;5044;48.652;9.250;2023-06-19T12:51:36;3.25;;;1.70;;
10009;SDS011;5044;48.652;9.250;2023-06-19T12:54:03;1.80;;;1.70;;
10009;SDS011;5044;48.652;9.250;2023-06-19T12:56:30;1.95;;;1.75;;
10009;SDS011;5044;48.652;9.250;2023-06-19T12:58:57;1.85;;;1.60;;
10009;SDS011;5044;48.652;9.250;2023-06-19T13:01:24;4.30;;;1.90;;
10009;SDS011;5044;48.652;9.250;2023-06-19T13:03:51;3.63;;;1.70;;
10009;SDS011;5044;48.652;9.250;2023-06-19T13:06:18;2.00;;;1.80;;
10009;SDS011;5044;48.652;9.250;2023-06-19T13:08:47;5.43;;;1.70;;
10009;SDS011;5044;48.652;9.250;2023-06-19T13:11:14;2.72;;;2.00;;
10009;SDS011;5044;48.652;9.250;2023-06-19T13:13:41;3.53;;;1.70;;
10009;SDS011;5044;48.652;9.250;2023-06-19T13:16:08;2.22;;;1.80;;
10009;SDS011;5044;48.652;9.250;2023-06-19T13:18:35;1.98;;;1.75;;
10009;SDS011;5044;48.652;9.250;2023-06-19T13:21:02;1.73;;;1.58;;
10009;SDS011;5044;48.652;9.250;2023-06-19T13:23:29;2.13;;;1.83;;
10009;SDS011;5044;48.652;9.250;2023-06-19T13:25:58;2.10;;;1.90;;
10009;SDS011;5044;48.652;9.250;2023-06-19T13:28:25;3.50;;;1.80;;
10009;SDS011;5044;48.652;9.250;2023-06-19T13:30:52;1.83;;;1.63;;
10009;SDS011;5044;48.652;9.250;2023-06-19T13:33:19;2.38;;;1.40;;
10009;SDS011;5044;48.652;9.250;2023-06-19T13:35:46;1.73;;;1.50;;
10009;SDS011;5044;48.652;9.250;2023-06-19T13:38:13;1.80;;;1.70;;
10009;SDS011;5044;48.652;9.250;2023-06-19T13:40:40;5.00;;;1.80;;
10009;SDS011;5044;48.652;9.250;2023-06-19T13:43:09;2.08;;;1.55;;
10009;SDS011;5044;48.652;9.250;2023-06-19T13:45:36;2.03;;;1.83;;
10009;SDS011;5044;48.652;9.250;2023-06-19T13:48:03;4.07;;;1.67;;
10009;SDS011;5044;48.652;9.250;2023-06-19T13:50:31;3.28;;;1.67;;
10009;SDS011;5044;48.652;9.250;2023-06-19T13:52:58;1.95;;;1.75;;
10009;SDS011;5044;48.652;9.250;2023-06-19T13:55:25;2.95;;;1.77;;
10009;SDS011;5044;48.652;9.250;2023-06-19T13:57:52;3.10;;;1.98;;
10009;SDS011;5044;48.652;9.250;2023-06-19T14:00:20;2.13;;;1.52;;
10009;SDS011;5044;48.652;9.250;2023-06-19T14:02:47;3.80;;;1.77;;
10009;SDS011;5044;48.652;9.250;2023-06-19T14:05:15;2.85;;;1.85;;
10009;SDS011;5044;48.652;9.250;2023-06-19T14:07:42;2.10;;;1.90;;
10009;SDS011;5044;48.652;9.250;2023-06-19T14:10:10;3.53;;;1.60;;
10009;SDS011;5044;48.652;9.250;2023-06-19T14:12:37;3.20;;;1.88;;
10009;SDS011;5044;48.652;9.250;2023-06-19T14:15:05;3.30;;;1.70;;
10009;SDS011;5044;48.652;9.250;2023-06-19T14:17:34;1.88;;;1.67;;
10009;SDS011;5044;48.652;9.250;2023-06-19T14:20:02;4.38;;;1.92;;
10009;SDS011;5044;48.652;9.250;2023-06-19T14:22:30;2.20;;;2.00;;
10009;SDS011;5044;48.652;9.250;2023-06-19T14:24:57;3.25;;;1.77;;
10009;SDS011;5044;48.652;9.250;2023-06-19T14:27:27;2.05;;;1.65;;
10009;SDS011;5044;48.652;9.250;2023-06-19T14:29:54;4.65;;;1.70;;
10009;SDS011;5044;48.652;9.250;2023-06-19T14:32:21;2.00;;;1.70;;
10009;SDS011;5044;48.652;9.250;2023-06-19T14:34:50;2.50;;;1.80;;
10009;SDS011;5044;48.652;9.250;2023-06-19T14:37:17;1.98;;;1.77;;
10009;SDS011;5044;48.652;9.250;2023-06-19T14:39:44;2.97;;;2.00;;
10009;SDS011;5044;48.652;9.250;2023-06-19T14:42:11;3.08;;;1.52;;
10009;SDS011;5044;48.652;9.250;2023-06-19T14:44:38;2.20;;;2.00;;
10009;SDS011;5044;48.652;9.250;2023-06-19T14:47:05;4.95;;;1.50;;
10009;SDS011;5044;48.652;9.250;2023-06-19T14:49:33;2.60;;;1.48;;
10009;SDS011;5044;48.652;9.250;2023-06-19T14:52:01;4.68;;;1.55;;
10009;SDS011;5044;48.652;9.250;2023-06-19T14:54:28;2.00;;;1.80;;
10009;SDS011;5044;48.652;9.250;2023-06-19T14:56:55;4.13;;;1.75;;
10009;SDS011;5044;48.652;9.250;2023-06-19T14:59:22;2.00;;;1.80;;
10009;SDS011;5044;48.652;9.250;2023-06-19T15:01:49;2.13;;;1.80;;
10009;SDS011;5044;48.652;9.250;2023-06-19T15:04:16;5.35;;;1.95;;
10009;SDS011;5044;48.652;9.250;2023-06-19T15:06:43;2.25;;;1.63;;
10009;SDS011;5044;48.652;9.250;2023-06-19T15:09:11;3.00;;;1.80;;
10009;SDS011;5044;48.652;9.250;2023-06-19T15:11:39;3.60;;;2.50;;